createdAt,value
2023-04-09T00:01:49.877Z,21.25
2023-04-09T00:03:51.824Z,22.48
2023-04-09T00:05:55.195Z,23.42
2023-04-09T00:07:57.297Z,21.58
2023-04-09T00:09:59.288Z,22.50
2023-04-09T00:12:02.228Z,22.85
2023-04-09T00:14:04.075Z,22.90
2023-04-09T00:16:06.056Z,21.70
2023-04-09T00:18:07.882Z,21.58
2023-04-09T00:20:09.906Z,23.30
2023-04-09T00:22:12.137Z,22.75
2023-04-09T00:24:14.119Z,21.85
2023-04-09T00:26:15.950Z,22.67
2023-04-09T00:28:17.735Z,22.53
2023-04-09T00:30:19.624Z,22.33
2023-04-09T00:32:21.475Z,23.00
2023-04-09T00:34:23.303Z,22.30
2023-04-09T00:36:27.094Z,21.53
2023-04-09T00:38:28.969Z,21.98
2023-04-09T00:40:30.957Z,22.07
2023-04-09T00:42:33.748Z,23.35
2023-04-09T00:44:35.875Z,22.33
2023-04-09T00:46:37.713Z,21.90
2023-04-09T00:48:39.669Z,23.50
2023-04-09T00:50:42.058Z,22.73
2023-04-09T00:52:43.862Z,24.75
2023-04-09T00:54:45.678Z,22.73
2023-04-09T00:56:47.464Z,23.43
2023-04-09T00:58:49.765Z,22.30
2023-04-09T01:00:51.751Z,22.60
2023-04-09T01:02:54.074Z,22.40
2023-04-09T01:04:55.983Z,22.25
2023-04-09T01:07:12.593Z,23.17
2023-04-09T01:09:32.981Z,22.80
2023-04-09T01:12:04.657Z,22.75
2023-04-09T01:14:24.800Z,22.80
2023-04-09T01:16:27.297Z,22.13
2023-04-09T01:18:40.296Z,22.33
2023-04-09T01:21:15.191Z,22.13
2023-04-09T01:23:26.310Z,22.45
2023-04-09T01:25:46.762Z,24.10
2023-04-09T01:28:10.999Z,23.73
2023-04-09T01:30:13.067Z,22.38
2023-04-09T01:32:15.949Z,22.42
2023-04-09T01:34:17.775Z,22.88
2023-04-09T01:36:19.603Z,23.77
2023-04-09T01:38:21.636Z,23.30
2023-04-09T01:40:23.490Z,22.52
2023-04-09T01:42:25.318Z,22.67
2023-04-09T01:44:27.131Z,23.73
2023-04-09T01:46:29.244Z,23.13
2023-04-09T01:48:31.560Z,22.92
2023-04-09T01:50:33.700Z,24.13
2023-04-09T01:52:35.490Z,21.95
2023-04-09T01:54:37.328Z,23.17
2023-04-09T01:56:45.765Z,22.98
2023-04-09T01:58:47.620Z,22.75
2023-04-09T02:00:49.970Z,23.80
2023-04-09T02:03:08.543Z,22.60
2023-04-09T02:05:10.994Z,24.10
2023-04-09T02:07:24.315Z,23.02
2023-04-09T02:09:27.365Z,23.50
2023-04-09T02:11:32.409Z,22.10
2023-04-09T02:13:34.826Z,22.92
2023-04-09T02:15:37.002Z,22.05
2023-04-09T02:17:38.896Z,23.15
2023-04-09T02:19:44.794Z,23.65
2023-04-09T02:21:46.815Z,23.10
2023-04-09T02:23:48.611Z,22.13
2023-04-09T02:25:52.045Z,22.80
2023-04-09T02:27:53.853Z,21.67
2023-04-09T02:29:55.889Z,23.50
2023-04-09T02:31:57.694Z,23.55
2023-04-09T02:33:59.652Z,23.33
2023-04-09T02:36:01.487Z,23.98
2023-04-09T02:38:03.415Z,22.80
2023-04-09T02:40:05.814Z,23.70
2023-04-09T02:42:08.070Z,22.77
2023-04-09T02:44:09.940Z,25.05
2023-04-09T02:46:11.816Z,24.17
2023-04-09T02:48:13.691Z,24.63
2023-04-09T02:50:15.584Z,22.83
2023-04-09T02:52:17.367Z,23.77
2023-04-09T02:54:19.207Z,23.90
2023-04-09T02:56:20.994Z,24.38
2023-04-09T02:58:22.861Z,25.17
2023-04-09T03:00:24.716Z,24.88
2023-04-09T03:02:26.696Z,25.50
2023-04-09T03:04:28.685Z,26.25
2023-04-09T03:06:30.837Z,25.67
2023-04-09T03:08:32.651Z,27.13
2023-04-09T03:10:34.451Z,26.80
2023-04-09T03:12:36.242Z,28.17
2023-04-09T03:14:38.053Z,25.37
2023-04-09T03:16:39.948Z,27.08
2023-04-09T03:18:41.775Z,26.13
2023-04-09T03:20:43.541Z,25.30
2023-04-09T03:22:45.374Z,27.15
2023-04-09T03:24:47.254Z,27.47
2023-04-09T03:26:49.087Z,28.10
2023-04-09T03:28:51.152Z,26.27
2023-04-09T03:30:53.207Z,27.50
2023-04-09T03:32:55.178Z,26.90
2023-04-09T03:34:57.087Z,28.55
2023-04-09T03:36:58.930Z,29.13
2023-04-09T03:39:01.061Z,26.37
2023-04-09T03:41:02.947Z,29.52
2023-04-09T03:43:04.766Z,28.52
2023-04-09T03:45:06.978Z,30.25
2023-04-09T03:47:08.739Z,30.38
2023-04-09T03:49:10.587Z,29.87
2023-04-09T03:51:13.386Z,29.60
2023-04-09T03:53:15.635Z,29.05
2023-04-09T03:55:17.440Z,29.70
2023-04-09T03:57:19.238Z,30.67
2023-04-09T03:59:21.034Z,30.80
2023-04-09T04:01:22.851Z,30.40
2023-04-09T04:03:24.750Z,29.27
2023-04-09T04:05:26.667Z,29.48
2023-04-09T04:07:28.529Z,30.80
2023-04-09T04:09:30.386Z,31.33
2023-04-09T04:11:32.213Z,31.98
2023-04-09T04:13:34.037Z,30.63
2023-04-09T04:15:44.812Z,30.97
2023-04-09T04:17:46.633Z,30.63
2023-04-09T04:19:48.580Z,30.23
2023-04-09T04:21:50.419Z,29.20
2023-04-09T04:23:52.193Z,30.48
2023-04-09T04:25:54.291Z,31.00
2023-04-09T04:27:56.303Z,29.90
2023-04-09T04:30:02.278Z,30.35
2023-04-09T04:32:04.438Z,30.48
2023-04-09T04:34:06.342Z,31.08
2023-04-09T04:36:09.282Z,31.47
2023-04-09T04:38:11.972Z,32.05
2023-04-09T04:42:15.506Z,33.10
2023-04-09T04:44:17.318Z,31.07
2023-04-09T04:46:20.825Z,31.50
2023-04-09T04:48:23.003Z,29.70
2023-04-09T04:50:25.157Z,31.83
2023-04-09T04:52:27.122Z,29.75
2023-04-09T04:54:28.934Z,29.33
2023-04-09T04:56:30.835Z,28.97
2023-04-09T04:58:32.634Z,28.75
2023-04-09T05:00:34.497Z,28.00
2023-04-09T05:02:36.431Z,27.17
2023-04-09T05:04:38.316Z,26.55
2023-04-09T05:06:40.185Z,26.00
2023-04-09T05:08:41.976Z,26.38
2023-04-09T05:10:44.031Z,26.30
2023-04-09T05:12:45.985Z,27.60
2023-04-09T05:14:47.895Z,27.42
2023-04-09T05:16:49.815Z,26.35
2023-04-09T05:18:52.026Z,26.80
2023-04-09T05:20:54.157Z,27.80
2023-04-09T05:22:55.963Z,28.60
2023-04-09T05:24:57.811Z,28.30
2023-04-09T05:26:59.607Z,27.27
2023-04-09T05:29:01.487Z,27.57
2023-04-09T05:31:03.461Z,26.83
2023-04-09T05:33:05.367Z,28.98
2023-04-09T05:35:07.496Z,28.45
2023-04-09T05:37:09.308Z,30.13
2023-04-09T05:39:11.229Z,29.43
2023-04-09T05:41:13.030Z,29.27
2023-04-09T05:43:14.901Z,28.73
2023-04-09T05:45:16.799Z,28.90
2023-04-09T05:47:18.622Z,27.60
2023-04-09T05:49:20.537Z,28.70
2023-04-09T05:51:22.338Z,29.95
2023-04-09T05:53:24.170Z,29.73
2023-04-09T05:55:26.049Z,29.60
2023-04-09T05:57:30.296Z,30.83
2023-04-09T05:59:32.140Z,31.10
2023-04-09T06:01:34.020Z,29.13
2023-04-09T06:03:36.383Z,31.55
2023-04-09T06:05:38.282Z,29.30
2023-04-09T06:07:40.156Z,30.05
2023-04-09T06:09:44.196Z,31.23
2023-04-09T06:11:46.172Z,30.88
2023-04-09T06:13:48.072Z,28.45
2023-04-09T06:15:50.034Z,29.40
2023-04-09T06:17:51.889Z,27.50
2023-04-09T06:19:53.829Z,27.80
2023-04-09T06:21:55.676Z,27.80
2023-04-09T06:23:57.785Z,29.00
2023-04-09T06:25:59.696Z,27.38
2023-04-09T06:28:01.499Z,27.55
2023-04-09T06:30:03.414Z,26.13
2023-04-09T06:32:06.053Z,28.30
2023-04-09T06:34:07.960Z,26.17
2023-04-09T06:36:09.886Z,26.90
2023-04-09T06:38:11.758Z,25.23
2023-04-09T06:40:14.342Z,27.20
2023-04-09T06:42:16.450Z,24.98
2023-04-09T06:44:18.274Z,26.17
2023-04-09T06:46:20.397Z,27.03
2023-04-09T06:48:22.393Z,26.33
2023-04-09T06:50:24.272Z,25.17
2023-04-09T06:52:26.120Z,25.95
2023-04-09T06:54:27.921Z,26.93
2023-04-09T06:56:29.751Z,25.70
2023-04-09T06:58:31.555Z,25.33
2023-04-09T07:00:33.359Z,26.77
2023-04-09T07:02:35.567Z,28.57
2023-04-09T07:04:37.645Z,27.45
2023-04-09T07:06:40.504Z,26.25
2023-04-09T07:08:42.420Z,24.27
2023-04-09T07:10:44.276Z,24.80
2023-04-09T07:12:46.078Z,25.30
2023-04-09T07:14:47.951Z,22.80
2023-04-09T07:16:49.750Z,24.87
2023-04-09T07:18:51.559Z,22.90
2023-04-09T07:20:53.750Z,23.50
2023-04-09T07:22:55.606Z,23.38
2023-04-09T07:24:57.506Z,22.97
2023-04-09T07:27:03.396Z,23.23
2023-04-09T07:29:05.295Z,22.38
2023-04-09T07:31:07.939Z,24.15
2023-04-09T07:33:09.784Z,22.48
2023-04-09T07:35:11.873Z,21.85
2023-04-09T07:37:13.768Z,21.75
2023-04-09T07:39:15.734Z,20.13
2023-04-09T07:41:17.576Z,20.40
2023-04-09T07:43:21.421Z,20.33
2023-04-09T07:45:24.429Z,19.08
2023-04-09T07:47:27.137Z,19.55
2023-04-09T07:49:31.019Z,21.20
2023-04-09T07:51:32.911Z,20.45
2023-04-09T07:53:34.981Z,20.15
2023-04-09T07:55:36.832Z,20.45
2023-04-09T07:57:38.744Z,20.27
2023-04-09T07:59:40.598Z,20.92
2023-04-09T08:01:42.846Z,20.83
2023-04-09T08:03:44.992Z,19.52
2023-04-09T08:05:47.107Z,18.95
2023-04-09T08:07:50.664Z,18.42
2023-04-09T08:09:52.559Z,18.13
2023-04-09T08:11:54.554Z,17.75
2023-04-09T08:13:57.271Z,17.15
2023-04-09T08:18:04.493Z,16.45
2023-04-09T08:20:06.914Z,16.40
2023-04-09T08:22:08.768Z,15.20
2023-04-09T08:24:11.767Z,14.30
2023-04-09T08:26:13.730Z,14.98
2023-04-09T08:28:15.615Z,14.67
2023-04-09T08:30:18.845Z,15.00
2023-04-09T08:32:21.612Z,13.63
2023-04-09T08:34:23.483Z,15.18
2023-04-09T08:36:26.430Z,13.75
2023-04-09T08:38:28.307Z,12.93
2023-04-09T08:40:33.579Z,12.90
2023-04-09T08:42:35.834Z,13.02
2023-04-09T08:44:37.631Z,13.00
2023-04-09T08:46:39.440Z,13.00
2023-04-09T08:48:43.221Z,12.53
2023-04-09T08:50:46.359Z,11.80
2023-04-09T08:52:48.793Z,12.20
2023-04-09T08:54:50.828Z,12.15
2023-04-09T08:56:52.699Z,12.57
2023-04-09T08:58:55.286Z,12.13
2023-04-09T09:00:57.548Z,11.93
2023-04-09T09:03:07.349Z,11.85
2023-04-09T09:05:09.509Z,12.65
2023-04-09T09:07:11.598Z,12.35
2023-04-09T09:09:16.942Z,13.00
2023-04-09T09:11:28.021Z,12.80
2023-04-09T09:13:29.886Z,12.63
2023-04-09T09:15:32.105Z,13.35
2023-04-09T09:17:34.684Z,11.35
2023-04-09T09:21:39.249Z,11.90
2023-04-09T09:23:41.276Z,12.38
2023-04-09T09:25:43.503Z,11.80
2023-04-09T09:27:45.398Z,12.95
2023-04-09T09:29:47.254Z,13.68
2023-04-09T09:31:50.606Z,12.77
2023-04-09T09:33:52.550Z,12.80
2023-04-09T09:35:55.194Z,11.32
2023-04-09T09:38:06.341Z,12.73
2023-04-09T09:40:08.935Z,11.82
2023-04-09T09:42:10.852Z,12.00
2023-04-09T09:44:13.187Z,12.27
2023-04-09T09:46:15.502Z,10.90
2023-04-09T09:48:17.342Z,11.10
2023-04-09T09:50:19.291Z,11.10
2023-04-09T09:52:24.854Z,11.88
2023-04-09T09:54:27.219Z,12.35
2023-04-09T09:56:37.992Z,11.95
2023-04-09T09:58:51.281Z,12.18
2023-04-09T10:00:53.364Z,11.95
2023-04-09T10:03:04.419Z,11.75
2023-04-09T10:05:06.584Z,11.25
2023-04-09T10:07:08.513Z,11.02
2023-04-09T10:09:10.354Z,11.25
2023-04-09T10:11:12.898Z,11.03
2023-04-09T10:13:17.704Z,11.75
2023-04-09T10:15:19.867Z,10.75
2023-04-09T10:17:22.257Z,10.25
2023-04-09T10:19:24.654Z,10.40
2023-04-09T10:21:29.861Z,10.35
2023-04-09T10:23:42.835Z,10.30
2023-04-09T10:27:48.985Z,10.77
2023-04-09T10:29:52.130Z,10.65
2023-04-09T10:32:03.916Z,10.05
2023-04-09T10:34:05.753Z,9.57
2023-04-09T10:36:12.270Z,9.60
2023-04-09T10:38:17.324Z,9.13
2023-04-09T10:40:21.735Z,10.20
2023-04-09T10:42:27.352Z,9.25
2023-04-09T10:44:31.944Z,9.63
2023-04-09T10:46:37.147Z,9.40
2023-04-09T10:48:39.047Z,9.20
2023-04-09T10:50:44.744Z,9.33
2023-04-09T10:52:46.916Z,9.75
2023-04-09T10:54:49.696Z,9.10
2023-04-09T10:59:12.280Z,9.40
2023-04-09T11:01:22.449Z,9.50
2023-04-09T11:03:31.577Z,8.70
2023-04-09T11:05:39.851Z,8.68
2023-04-09T11:07:44.526Z,8.48
2023-04-09T11:09:47.352Z,9.77
2023-04-09T11:11:54.870Z,9.27
2023-04-09T11:14:01.807Z,8.63
2023-04-09T11:16:07.205Z,8.20
2023-04-09T11:18:13.950Z,8.55
2023-04-09T11:20:17.410Z,8.05
2023-04-09T11:22:19.311Z,9.15
2023-04-09T11:24:21.245Z,8.68
2023-04-09T11:26:32.517Z,9.13
2023-04-09T11:28:34.961Z,9.25
2023-04-09T11:30:37.580Z,8.45
2023-04-09T11:32:39.472Z,8.90
2023-04-09T11:34:41.580Z,9.13
2023-04-09T11:36:43.444Z,9.50
2023-04-09T11:38:45.450Z,8.82
2023-04-09T11:40:51.448Z,9.05
2023-04-09T11:42:54.530Z,9.80
2023-04-09T11:44:56.400Z,9.48
2023-04-09T11:46:59.269Z,8.60
2023-04-09T11:49:01.428Z,9.30
2023-04-09T11:51:04.115Z,10.02
2023-04-09T11:55:24.800Z,8.70
2023-04-09T11:57:28.328Z,9.40
2023-04-09T11:59:30.574Z,9.65
2023-04-09T12:01:33.109Z,9.68
2023-04-09T12:03:36.982Z,10.15
2023-04-09T12:05:41.072Z,10.40
2023-04-09T12:07:55.448Z,9.40
2023-04-09T12:09:58.032Z,9.65
2023-04-09T12:11:59.865Z,8.38
2023-04-09T12:14:03.032Z,10.33
2023-04-09T12:16:05.045Z,8.65
2023-04-09T12:18:10.938Z,9.75
2023-04-09T12:20:12.964Z,9.32
2023-04-09T12:22:14.800Z,9.57
2023-04-09T12:24:17.434Z,10.20
2023-04-09T12:28:21.119Z,9.73
2023-04-09T12:30:23.824Z,9.93
2023-04-09T12:34:27.947Z,10.40
2023-04-09T12:36:29.904Z,9.95
2023-04-09T12:38:31.750Z,9.43
2023-04-09T12:40:33.810Z,10.00
2023-04-09T12:42:35.701Z,9.50
2023-04-09T12:44:38.869Z,10.38
2023-04-09T12:46:40.796Z,9.07
2023-04-09T12:48:42.620Z,10.18
2023-04-09T12:50:44.699Z,9.80
2023-04-09T12:52:46.613Z,10.05
2023-04-09T12:54:48.956Z,11.57
2023-04-09T12:56:51.129Z,11.13
2023-04-09T12:58:54.154Z,10.30
2023-04-09T13:00:57.591Z,9.93
2023-04-09T13:02:59.509Z,10.65
2023-04-09T13:05:01.613Z,10.85
2023-04-09T13:07:03.527Z,10.63
2023-04-09T13:09:05.414Z,9.68
2023-04-09T13:11:07.306Z,10.20
2023-04-09T13:13:12.271Z,9.10
2023-04-09T13:15:14.270Z,9.60
2023-04-09T13:17:16.318Z,10.25
2023-04-09T13:19:18.963Z,9.55
2023-04-09T13:23:22.541Z,10.18
2023-04-09T13:25:24.350Z,10.38
2023-04-09T13:27:26.577Z,11.25
2023-04-09T13:29:29.501Z,11.85
2023-04-09T13:31:31.392Z,10.75
2023-04-09T13:33:33.472Z,12.18
2023-04-09T13:35:35.808Z,12.27
2023-04-09T13:37:37.657Z,11.43
2023-04-09T13:39:39.468Z,11.98
2023-04-09T13:41:41.332Z,12.07
2023-04-09T13:43:45.133Z,12.35
2023-04-09T13:45:47.146Z,12.95
2023-04-09T13:47:49.582Z,13.15
2023-04-09T13:51:56.144Z,12.68
2023-04-09T13:53:58.039Z,12.38
2023-04-09T13:55:59.949Z,12.32
2023-04-09T13:58:01.809Z,13.07
2023-04-09T14:00:05.500Z,12.73
2023-04-09T14:02:07.381Z,11.88
2023-04-09T14:04:09.394Z,13.18
2023-04-09T14:06:11.920Z,13.20
2023-04-09T14:08:13.771Z,12.55
2023-04-09T14:10:15.988Z,12.40
2023-04-09T14:12:17.959Z,12.82
2023-04-09T14:14:20.079Z,12.10
2023-04-09T14:16:22.465Z,13.57
2023-04-09T14:20:26.200Z,12.68
2023-04-09T14:22:28.614Z,13.35
2023-04-09T14:26:32.157Z,12.38
2023-04-09T14:28:34.014Z,13.00
2023-04-09T14:30:36.054Z,10.95
2023-04-09T14:32:37.907Z,14.02
2023-04-09T14:34:39.700Z,13.80
2023-04-09T14:36:41.954Z,13.15
2023-04-09T14:38:43.763Z,13.75
2023-04-09T14:40:45.631Z,13.00
2023-04-09T14:42:48.125Z,13.68
2023-04-09T14:46:55.240Z,13.07
2023-04-09T14:48:57.166Z,14.57
2023-04-09T14:50:58.974Z,13.88
2023-04-09T14:53:01.169Z,13.68
2023-04-09T14:55:02.935Z,13.23
2023-04-09T14:57:04.858Z,12.93
2023-04-09T14:59:06.899Z,13.55
2023-04-09T15:01:09.122Z,15.95
2023-04-09T15:03:11.178Z,14.02
2023-04-09T15:05:13.442Z,14.43
2023-04-09T15:07:15.550Z,14.00
2023-04-09T15:09:17.356Z,14.50
2023-04-09T15:11:20.727Z,12.80
2023-04-09T15:13:22.633Z,13.65
2023-04-09T15:15:24.503Z,13.00
2023-04-09T15:17:26.746Z,12.20
2023-04-09T15:19:28.657Z,12.80
2023-04-09T15:21:31.647Z,12.10
2023-04-09T15:23:35.561Z,12.65
2023-04-09T15:25:37.457Z,11.75
2023-04-09T15:27:39.236Z,12.68
2023-04-09T15:29:41.084Z,13.52
2023-04-09T15:31:42.884Z,12.23
2023-04-09T15:33:45.538Z,12.43
2023-04-09T15:35:47.359Z,12.45
2023-04-09T15:37:49.281Z,11.15
2023-04-09T15:39:51.192Z,12.50
2023-04-09T15:41:53.089Z,12.27
2023-04-09T15:43:54.889Z,12.20
2023-04-09T15:45:56.702Z,11.25
2023-04-09T15:47:58.596Z,10.65
2023-04-09T15:50:00.624Z,10.63
2023-04-09T15:52:02.419Z,11.30
2023-04-09T15:54:04.457Z,11.05
2023-04-09T15:56:06.679Z,11.20
2023-04-09T15:58:08.519Z,11.05
2023-04-09T16:00:11.029Z,10.77
2023-04-09T16:04:14.722Z,12.05
2023-04-09T16:06:16.833Z,12.02
2023-04-09T16:08:18.645Z,12.90
2023-04-09T16:10:20.574Z,11.88
2023-04-09T16:12:23.366Z,11.57
2023-04-09T16:14:25.198Z,11.50
2023-04-09T16:16:27.147Z,12.68
2023-04-09T16:18:28.991Z,12.23
2023-04-09T16:20:31.204Z,12.80
2023-04-09T16:22:33.010Z,11.73
2023-04-09T16:24:34.964Z,12.32
2023-04-09T16:26:36.854Z,12.15
2023-04-09T16:28:38.719Z,12.40
2023-04-09T16:30:40.849Z,12.13
2023-04-09T16:32:42.677Z,10.75
2023-04-09T16:34:44.539Z,12.63
2023-04-09T16:36:46.408Z,12.07
2023-04-09T16:38:48.807Z,12.52
2023-04-09T16:40:50.677Z,12.23
2023-04-09T16:42:52.506Z,11.77
2023-04-09T16:44:54.410Z,11.98
2023-04-09T16:46:56.597Z,11.50
2023-04-09T16:48:58.442Z,11.32
2023-04-09T16:51:00.294Z,12.30
2023-04-09T16:53:04.447Z,12.10
2023-04-09T16:55:07.861Z,11.50
2023-04-09T16:57:09.664Z,12.48
2023-04-09T16:59:12.248Z,12.30
2023-04-09T17:03:16.132Z,11.13
2023-04-09T17:05:18.032Z,11.75
2023-04-09T17:07:20.015Z,11.70
2023-04-09T17:09:21.884Z,10.68
2023-04-09T17:11:23.850Z,12.20
2023-04-09T17:13:25.669Z,11.77
2023-04-09T17:15:27.701Z,11.60
2023-04-09T17:17:29.534Z,12.13
2023-04-09T17:19:31.364Z,12.15
2023-04-09T17:21:33.264Z,11.20
2023-04-09T17:23:36.251Z,11.52
2023-04-09T17:25:38.200Z,11.95
2023-04-09T17:27:40.087Z,10.82
2023-04-09T17:29:41.920Z,11.75
2023-04-09T17:31:44.228Z,11.80
2023-04-09T17:33:48.781Z,11.90
2023-04-09T17:35:50.943Z,12.27
2023-04-09T17:37:52.928Z,11.25
2023-04-09T17:39:54.779Z,12.30
2023-04-09T17:41:58.261Z,24.52
2023-04-09T17:44:00.187Z,37.20
2023-04-09T17:46:02.873Z,25.90
2023-04-09T17:50:10.318Z,21.90
2023-04-09T17:52:13.220Z,22.55
2023-04-09T17:54:15.032Z,21.38
2023-04-09T17:56:17.183Z,22.23
2023-04-09T17:58:19.168Z,21.25
2023-04-09T18:00:21.395Z,21.77
2023-04-09T18:02:23.429Z,21.90
2023-04-09T18:04:26.121Z,20.30
2023-04-09T18:08:30.146Z,19.60
2023-04-09T18:10:32.471Z,19.85
2023-04-09T18:12:34.320Z,20.67
2023-04-09T18:14:36.369Z,20.60
2023-04-09T18:16:38.622Z,20.40
2023-04-09T18:18:40.423Z,20.52
2023-04-09T18:20:42.255Z,20.33
2023-04-09T18:22:44.374Z,19.77
2023-04-09T18:24:46.240Z,18.65
2023-04-09T18:26:48.141Z,19.63
2023-04-09T18:28:50.513Z,19.17
2023-04-09T18:30:54.215Z,19.33
2023-04-09T18:32:56.081Z,17.30
2023-04-09T18:34:57.919Z,18.63
2023-04-09T18:36:59.763Z,18.10
2023-04-09T18:39:02.302Z,19.47
2023-04-09T18:41:04.347Z,18.50
2023-04-09T18:43:06.226Z,18.67
2023-04-09T18:45:08.585Z,19.27
2023-04-09T18:47:11.110Z,18.42
2023-04-09T18:49:14.859Z,20.38
2023-04-09T18:51:18.845Z,20.20
2023-04-09T18:53:22.187Z,19.42
2023-04-09T18:55:24.118Z,20.85
2023-04-09T18:57:26.131Z,18.92
2023-04-09T18:59:28.497Z,18.45
2023-04-09T19:01:30.387Z,19.23
2023-04-09T19:03:32.456Z,20.25
2023-04-09T19:05:35.068Z,18.42
2023-04-09T19:07:37.804Z,18.38
2023-04-09T19:09:41.742Z,17.20
2023-04-09T19:11:47.439Z,17.88
2023-04-09T19:13:50.605Z,17.70
2023-04-09T19:15:52.872Z,16.98
2023-04-09T19:17:57.593Z,17.05
2023-04-09T19:20:02.635Z,15.63
2023-04-09T19:22:04.742Z,16.10
2023-04-09T19:24:06.743Z,15.30
2023-04-09T19:26:11.114Z,15.45
2023-04-09T19:28:13.084Z,15.75
2023-04-09T19:30:15.124Z,15.82
2023-04-09T19:32:17.226Z,15.50
2023-04-09T19:34:19.371Z,13.80
2023-04-09T19:36:23.477Z,14.18
2023-04-09T19:38:25.392Z,13.98
2023-04-09T19:40:27.490Z,13.63
2023-04-09T19:42:29.682Z,13.98
2023-04-09T19:44:31.782Z,13.23
2023-04-09T19:46:33.917Z,13.63
2023-04-09T19:48:40.772Z,14.23
2023-04-09T19:50:43.644Z,14.52
2023-04-09T19:52:47.379Z,14.52
2023-04-09T19:54:59.236Z,14.85
2023-04-09T19:57:10.464Z,14.93
2023-04-09T19:59:20.238Z,14.13
2023-04-09T20:01:25.092Z,14.43
2023-04-09T20:03:33.657Z,13.80
2023-04-09T20:05:36.157Z,17.83
2023-04-09T20:07:38.911Z,13.27
2023-04-09T20:09:47.242Z,11.95
2023-04-09T20:11:53.460Z,11.20
2023-04-09T20:13:57.570Z,10.88
2023-04-09T20:15:59.745Z,9.27
2023-04-09T20:18:10.713Z,9.88
2023-04-09T20:20:13.225Z,9.93
2023-04-09T20:22:16.215Z,9.32
2023-04-09T20:24:22.475Z,8.88
2023-04-09T20:26:27.693Z,9.60
2023-04-09T20:28:29.913Z,8.85
2023-04-09T20:30:32.234Z,8.27
2023-04-09T20:32:35.842Z,8.30
2023-04-09T20:34:37.762Z,8.55
2023-04-09T20:36:43.730Z,8.45
2023-04-09T20:38:48.299Z,7.32
2023-04-09T20:40:52.379Z,7.80
2023-04-09T20:42:56.653Z,8.57
2023-04-09T20:45:01.348Z,7.85
2023-04-09T20:47:07.542Z,7.53
2023-04-09T20:49:18.578Z,7.85
2023-04-09T20:51:20.653Z,7.18
2023-04-09T20:53:24.894Z,7.20
2023-04-09T20:55:26.789Z,7.63
2023-04-09T20:57:29.032Z,8.48
2023-04-09T20:59:30.915Z,7.93
2023-04-09T21:01:33.516Z,8.03
2023-04-09T21:03:41.366Z,7.63
2023-04-09T21:05:43.388Z,7.63
2023-04-09T21:07:45.441Z,7.55
2023-04-09T21:09:47.326Z,8.15
2023-04-09T21:11:49.160Z,8.37
2023-04-09T21:13:54.538Z,7.83
2023-04-09T21:15:57.483Z,8.05
2023-04-09T21:17:59.525Z,8.43
2023-04-09T21:20:01.522Z,7.95
2023-04-09T21:22:03.432Z,7.53
2023-04-09T21:24:05.481Z,8.45
2023-04-09T21:26:07.788Z,7.45
2023-04-09T21:28:09.679Z,8.20
2023-04-09T21:30:11.901Z,7.53
2023-04-09T21:32:13.756Z,7.35
2023-04-09T21:34:16.048Z,7.80
2023-04-09T21:36:18.142Z,6.45
2023-04-09T21:38:20.150Z,7.18
2023-04-09T21:40:23.282Z,6.45
2023-04-09T21:42:25.687Z,6.38
2023-04-09T21:44:27.575Z,6.35
2023-04-09T21:46:29.513Z,5.65
2023-04-09T21:48:31.449Z,5.47
2023-04-09T21:50:33.308Z,5.05
2023-04-09T21:52:35.352Z,5.00
2023-04-09T21:54:37.193Z,5.38
2023-04-09T21:56:49.347Z,5.13
2023-04-09T21:58:51.666Z,4.68
2023-04-09T22:00:53.699Z,5.15
2023-04-09T22:03:01.361Z,5.07
2023-04-09T22:05:03.710Z,5.05
2023-04-09T22:07:05.707Z,5.38
2023-04-09T22:09:07.518Z,5.28
2023-04-09T22:11:09.368Z,5.03
2023-04-09T22:13:11.235Z,5.38
2023-04-09T22:15:13.418Z,4.97
2023-04-09T22:17:15.999Z,5.63
2023-04-09T22:19:18.030Z,5.80
2023-04-09T22:21:19.867Z,5.07
2023-04-09T22:23:22.061Z,5.37
2023-04-09T22:25:24.012Z,6.00
2023-04-09T22:27:26.153Z,5.80
2023-04-09T22:29:28.501Z,5.85
2023-04-09T22:31:30.409Z,5.60
2023-04-09T22:33:32.281Z,4.90
2023-04-09T22:35:34.962Z,5.88
2023-04-09T22:39:39.141Z,5.20
2023-04-09T22:41:41.268Z,5.20
2023-04-09T22:43:43.132Z,5.50
2023-04-09T22:45:53.422Z,5.10
2023-04-09T22:47:55.812Z,5.35
2023-04-09T22:49:57.838Z,5.93
2023-04-09T22:51:59.642Z,6.55
2023-04-09T22:54:02.148Z,5.43
2023-04-09T22:58:06.036Z,6.30
2023-04-09T23:00:09.156Z,5.95
2023-04-09T23:02:11.116Z,6.05
2023-04-09T23:04:13.077Z,5.72
2023-04-09T23:06:17.091Z,6.15
2023-04-09T23:08:18.911Z,5.78
2023-04-09T23:10:21.114Z,5.57
2023-04-09T23:12:23.103Z,5.82
2023-04-09T23:14:24.963Z,6.50
2023-04-09T23:16:26.879Z,5.43
2023-04-09T23:18:30.005Z,5.40
2023-04-09T23:20:31.919Z,6.13
2023-04-09T23:22:33.862Z,5.85
2023-04-09T23:24:35.888Z,6.00
2023-04-09T23:26:37.727Z,5.35
2023-04-09T23:28:39.612Z,5.37
2023-04-09T23:30:41.695Z,4.70
2023-04-09T23:32:44.894Z,5.22
2023-04-09T23:34:46.882Z,5.10
2023-04-09T23:36:48.869Z,5.07
2023-04-09T23:38:50.704Z,5.70
2023-04-09T23:40:52.743Z,6.05
2023-04-09T23:42:54.708Z,5.43
2023-04-09T23:44:56.565Z,5.82
2023-04-09T23:46:59.424Z,6.23
2023-04-09T23:49:01.260Z,5.57
2023-04-09T23:51:03.090Z,5.83
2023-04-09T23:53:04.922Z,5.50
2023-04-09T23:55:09.794Z,6.13
2023-04-09T23:57:11.663Z,5.57
2023-04-09T23:59:13.465Z,6.13
